createdAt,value
2023-05-13T00:00:21.748Z,11.3
2023-05-13T00:01:28.706Z,11.3
2023-05-13T00:02:35.868Z,11.3
2023-05-13T00:03:42.483Z,11.3
2023-05-13T00:04:49.471Z,11.3
2023-05-13T00:05:56.728Z,11.3
2023-05-13T00:07:03.735Z,11.3
2023-05-13T00:08:10.756Z,11.3
2023-05-13T00:09:17.328Z,11.3
2023-05-13T00:10:24.599Z,11.3
2023-05-13T00:11:31.536Z,11.3
2023-05-13T00:12:38.783Z,11.3
2023-05-13T00:13:45.287Z,11.3
2023-05-13T00:14:52.376Z,11.3
2023-05-13T00:15:59.675Z,11.3
2023-05-13T00:18:13.766Z,11.3
2023-05-13T00:19:20.788Z,11.3
2023-05-13T00:20:27.428Z,11.3
2023-05-13T00:21:34.456Z,11.2
2023-05-13T00:22:41.633Z,11.2
2023-05-13T00:23:48.729Z,11.2
2023-05-13T00:24:56.344Z,11.2
2023-05-13T00:26:02.912Z,11.1
2023-05-13T00:27:09.486Z,11.1
2023-05-13T00:28:16.647Z,11.1
2023-05-13T00:29:23.700Z,11.1
2023-05-13T00:30:30.797Z,11.1
2023-05-13T00:31:37.472Z,11.1
2023-05-13T00:32:44.533Z,11
2023-05-13T00:33:51.638Z,11
2023-05-13T00:34:58.757Z,11
2023-05-13T00:36:05.867Z,11
2023-05-13T00:37:12.397Z,11
2023-05-13T00:38:19.568Z,11
2023-05-13T00:39:26.599Z,11
2023-05-13T00:40:33.685Z,11
2023-05-13T00:41:40.823Z,11
2023-05-13T00:42:47.407Z,11.1
2023-05-13T00:43:54.539Z,11.1
2023-05-13T00:45:01.620Z,11.1
2023-05-13T00:46:08.828Z,11.1
2023-05-13T00:47:15.852Z,11.1
2023-05-13T00:48:22.416Z,11.1
2023-05-13T00:49:29.616Z,11.1
2023-05-13T00:50:36.729Z,11.1
2023-05-13T00:51:43.730Z,11.1
2023-05-13T00:52:50.841Z,11
2023-05-13T00:53:57.441Z,11
2023-05-13T00:55:04.528Z,11
2023-05-13T00:56:11.655Z,11
2023-05-13T00:57:18.742Z,11
2023-05-13T00:59:32.490Z,11
2023-05-13T01:00:39.581Z,10.9
2023-05-13T01:01:46.850Z,11
2023-05-13T01:02:53.300Z,10.9
2023-05-13T01:04:00.909Z,10.9
2023-05-13T01:05:07.419Z,10.9
2023-05-13T01:06:14.518Z,10.9
2023-05-13T01:07:21.622Z,10.9
2023-05-13T01:08:28.792Z,10.9
2023-05-13T01:09:35.861Z,10.9
2023-05-13T01:10:42.468Z,11
2023-05-13T01:11:49.577Z,11
2023-05-13T01:12:56.649Z,11
2023-05-13T01:14:03.772Z,11
2023-05-13T01:15:10.845Z,11
2023-05-13T01:16:17.523Z,11
2023-05-13T01:17:24.561Z,11
2023-05-13T01:18:31.772Z,11
2023-05-13T01:19:38.813Z,10.9
2023-05-13T01:20:45.405Z,10.9
2023-05-13T01:21:52.568Z,10.9
2023-05-13T01:22:59.581Z,10.9
2023-05-13T01:24:06.242Z,10.9
2023-05-13T01:25:13.734Z,10.9
2023-05-13T01:26:20.383Z,10.9
2023-05-13T01:27:27.647Z,10.8
2023-05-13T01:28:34.555Z,10.8
2023-05-13T01:30:48.305Z,10.8
2023-05-13T01:31:55.418Z,10.8
2023-05-13T01:33:02.563Z,10.8
2023-05-13T01:34:09.653Z,10.9
2023-05-13T01:35:16.696Z,10.9
2023-05-13T01:36:23.806Z,10.9
2023-05-13T01:37:30.489Z,10.9
2023-05-13T01:38:37.503Z,10.9
2023-05-13T01:40:51.679Z,10.8
2023-05-13T02:19:56.817Z,10.9
2023-05-13T02:22:10.447Z,10.9
2023-05-13T05:07:26.510Z,10.8
2023-05-13T05:07:26.541Z,10.8
2023-05-13T05:52:06.525Z,11
2023-05-13T05:53:13.609Z,11
2023-05-13T05:57:41.491Z,11
2023-05-13T06:14:26.581Z,10.9
2023-05-13T06:15:33.132Z,10.9
2023-05-13T06:22:15.258Z,11.1
2023-05-13T06:25:36.059Z,11.1
2023-05-13T06:25:36.549Z,11.1
2023-05-13T06:40:07.396Z,11.1
2023-05-13T06:41:14.480Z,11.1
2023-05-13T06:42:21.569Z,11.2
2023-05-13T06:43:28.203Z,11.2
2023-05-13T06:43:28.678Z,11.2
2023-05-13T06:44:35.822Z,11.2
2023-05-13T06:49:03.161Z,11.1
2023-05-13T06:50:10.800Z,11.1
2023-05-13T06:51:17.379Z,11.1
2023-05-13T06:53:31.624Z,11.1
2023-05-13T06:54:38.187Z,11.1
2023-05-13T06:54:38.675Z,11.1
2023-05-13T06:55:45.860Z,11.1
2023-05-13T06:56:52.393Z,11.1
2023-05-13T06:57:59.482Z,11
2023-05-13T06:59:06.595Z,11
2023-05-13T07:00:13.770Z,11
2023-05-13T07:01:22.715Z,11
2023-05-13T07:02:27.448Z,11
2023-05-13T07:03:34.584Z,11
2023-05-13T07:04:41.577Z,11.1
2023-05-13T07:05:48.210Z,11.1
2023-05-13T07:05:48.724Z,11.1
2023-05-13T07:08:02.384Z,11.1
2023-05-13T07:12:30.791Z,11.1
2023-05-13T07:13:37.763Z,11.1
2023-05-13T07:13:38.167Z,11.1
2023-05-13T07:15:51.102Z,11.1
2023-05-13T07:16:58.260Z,11.2
2023-05-13T07:19:12.517Z,11.2
2023-05-13T07:19:12.537Z,11.2
2023-05-13T07:20:20.067Z,11.2
2023-05-13T07:21:26.641Z,11.2
2023-05-13T07:22:33.715Z,11.2
2023-05-13T07:23:41.186Z,11.2
2023-05-13T07:23:41.551Z,11.2
2023-05-13T07:24:47.462Z,11.2
2023-05-13T07:25:54.538Z,11.1
2023-05-13T07:27:01.645Z,11.1
2023-05-13T07:28:08.228Z,11.1
2023-05-13T07:29:15.347Z,11.1
2023-05-13T07:31:29.609Z,11.2
2023-05-13T07:32:36.165Z,11.2
2023-05-13T07:32:36.646Z,11.2
2023-05-13T07:33:43.721Z,11.2
2023-05-13T07:38:11.632Z,11.2
2023-05-13T07:39:18.833Z,11.2
2023-05-13T07:40:25.407Z,11.2
2023-05-13T07:41:32.440Z,11.2
2023-05-13T07:41:32.454Z,11.2
2023-05-13T07:42:39.588Z,11.2
2023-05-13T07:43:46.671Z,11.3
2023-05-13T07:44:53.738Z,11.3
2023-05-13T07:47:07.500Z,11.3
2023-05-13T07:48:14.658Z,11.3
2023-05-13T07:49:21.730Z,11.3
2023-05-13T07:50:28.279Z,11.3
2023-05-13T07:50:28.773Z,11.3
2023-05-13T07:52:42.456Z,11.3
2023-05-13T07:53:49.585Z,11.3
2023-05-13T07:54:56.202Z,11.3
2023-05-13T07:54:56.680Z,11.3
2023-05-13T07:56:03.808Z,11.3
2023-05-13T07:57:10.368Z,11.3
2023-05-13T07:58:17.511Z,11.3
2023-05-13T07:59:24.095Z,11.4
2023-05-13T08:00:31.702Z,11.4
2023-05-13T08:01:38.831Z,11.4
2023-05-13T08:02:45.452Z,11.4
2023-05-13T08:03:52.094Z,11.4
2023-05-13T08:03:52.605Z,11.4
2023-05-13T08:04:59.671Z,11.5
2023-05-13T08:06:06.766Z,11.5
2023-05-13T08:08:20.385Z,11.5
2023-05-13T08:09:27.508Z,11.5
2023-05-13T08:10:34.617Z,11.5
2023-05-13T08:11:41.698Z,11.6
2023-05-13T08:12:48.319Z,11.6
2023-05-13T08:12:48.351Z,11.6
2023-05-13T08:13:55.433Z,11.6
2023-05-13T08:15:03.146Z,11.7
2023-05-13T08:16:11.883Z,11.7
2023-05-13T08:17:16.213Z,11.7
2023-05-13T08:17:16.729Z,11.7
2023-05-13T08:18:23.847Z,11.7
2023-05-13T08:19:30.411Z,11.7
2023-05-13T08:20:37.536Z,11.7
2023-05-13T08:21:44.128Z,11.7
2023-05-13T08:21:44.595Z,11.7
2023-05-13T08:22:51.684Z,11.8
2023-05-13T08:23:58.835Z,11.8
2023-05-13T08:25:05.520Z,11.8
2023-05-13T08:26:12.069Z,11.8
2023-05-13T08:26:12.535Z,11.8
2023-05-13T08:27:19.649Z,11.8
2023-05-13T08:28:26.732Z,11.8
2023-05-13T08:29:36.542Z,11.9
2023-05-13T08:30:40.400Z,11.9
2023-05-13T08:30:40.463Z,11.9
2023-05-13T08:31:47.591Z,11.9
2023-05-13T08:34:01.753Z,12
2023-05-13T08:35:08.358Z,12
2023-05-13T08:35:08.391Z,12
2023-05-13T08:36:15.452Z,12
2023-05-13T08:37:22.532Z,12.1
2023-05-13T08:38:29.647Z,12
2023-05-13T08:39:36.559Z,12.1
2023-05-13T08:40:43.385Z,12.1
2023-05-13T08:41:50.416Z,12.1
2023-05-13T08:42:57.574Z,12.1
2023-05-13T08:44:04.632Z,12.1
2023-05-13T08:45:11.754Z,12.1
2023-05-13T08:47:25.481Z,12.1
2023-05-13T08:48:32.552Z,12.2
2023-05-13T08:49:39.645Z,12.2
2023-05-13T08:51:53.412Z,12.1
2023-05-13T08:53:00.443Z,12.2
2023-05-13T08:54:07.090Z,12.2
2023-05-13T08:57:28.379Z,12.2
2023-05-13T08:58:35.454Z,12.2
2023-05-13T08:59:42.567Z,12.2
2023-05-13T09:00:49.672Z,12.1
2023-05-13T09:01:56.812Z,12.1
2023-05-13T09:03:03.481Z,12.2
2023-05-13T09:04:10.429Z,12.2
2023-05-13T09:05:17.646Z,12.2
2023-05-13T09:06:24.667Z,12.2
2023-05-13T09:07:31.770Z,12.2
2023-05-13T09:08:38.427Z,12.2
2023-05-13T09:09:45.459Z,12.2
2023-05-13T09:10:52.550Z,12.2
2023-05-13T09:11:59.674Z,12.3
2023-05-13T09:13:06.783Z,12.3
2023-05-13T09:16:27.149Z,12.4
2023-05-13T09:17:34.177Z,12.4
2023-05-13T09:18:41.939Z,12.5
2023-05-13T09:19:48.463Z,12.5
2023-05-13T09:20:55.576Z,12.6
2023-05-13T09:22:02.572Z,12.6
2023-05-13T09:23:09.697Z,12.7
2023-05-13T09:24:16.286Z,12.7
2023-05-13T09:25:23.598Z,12.8
2023-05-13T09:26:32.417Z,12.8
2023-05-13T09:27:37.617Z,12.8
2023-05-13T09:28:45.229Z,13
2023-05-13T09:29:51.328Z,13
2023-05-13T09:31:00.499Z,13
2023-05-13T09:32:05.491Z,13.1
2023-05-13T09:33:12.750Z,13.1
2023-05-13T09:34:19.711Z,13.2
2023-05-13T09:35:26.349Z,13.2
2023-05-13T09:44:22.660Z,13.4
2023-05-13T09:45:29.739Z,13.4
2023-05-13T09:46:36.381Z,13.4
2023-05-13T09:47:43.440Z,13.4
2023-05-13T09:48:50.499Z,13.3
2023-05-13T09:49:57.667Z,13.3
2023-05-13T09:51:04.727Z,13.3
2023-05-13T09:52:11.291Z,13.3
2023-05-13T09:53:18.409Z,13.3
2023-05-13T09:54:25.547Z,13.3
2023-05-13T09:55:32.633Z,13.3
2023-05-13T09:56:39.745Z,13.4
2023-05-13T09:57:46.322Z,13.4
2023-05-13T10:00:00.545Z,13.6
2023-05-13T10:01:07.672Z,13.6
2023-05-13T10:02:14.757Z,13.7
2023-05-13T10:03:21.312Z,13.7
2023-05-13T10:04:28.557Z,13.8
2023-05-13T10:05:35.570Z,13.8
2023-05-13T10:06:42.652Z,13.8
2023-05-13T10:07:49.751Z,13.9
2023-05-13T10:08:56.359Z,14
2023-05-13T10:10:03.443Z,14.2
2023-05-13T10:11:10.514Z,14.2
2023-05-13T10:12:17.680Z,14.3
2023-05-13T10:13:24.216Z,14.3
2023-05-13T10:14:31.329Z,14.4
2023-05-13T10:15:38.464Z,14.4
2023-05-13T10:16:45.654Z,14.4
2023-05-13T10:17:52.753Z,14.5
2023-05-13T10:18:59.820Z,14.6
2023-05-13T10:20:06.413Z,14.7
2023-05-13T10:21:13.427Z,14.7
2023-05-13T10:22:20.534Z,14.9
2023-05-13T10:23:27.825Z,14.9
2023-05-13T10:24:37.235Z,14.9
2023-05-13T10:25:41.350Z,15
2023-05-13T10:26:48.477Z,15
2023-05-13T10:27:55.568Z,14.9
2023-05-13T10:29:02.666Z,14.9
2023-05-13T10:30:09.263Z,14.8
2023-05-13T10:31:16.486Z,14.8
2023-05-13T10:32:23.468Z,14.7
2023-05-13T10:33:30.074Z,14.7
2023-05-13T12:29:38.696Z,15.3
2023-05-13T12:30:45.218Z,15.4
2023-05-13T12:31:52.370Z,15.4
2023-05-13T12:32:59.541Z,15.4
2023-05-13T12:34:06.549Z,15.5
2023-05-13T12:35:13.627Z,15.6
2023-05-13T12:36:20.943Z,15.7
2023-05-13T12:37:29.462Z,15.7
2023-05-13T12:38:34.457Z,15.8
2023-05-13T12:39:42.317Z,15.9
2023-05-13T12:40:50.486Z,15.8
2023-05-13T12:41:55.234Z,15.9
2023-05-13T12:43:02.334Z,15.9
2023-05-13T12:44:09.418Z,15.9
2023-05-13T12:45:16.573Z,15.9
2023-05-13T12:46:23.709Z,15.9
2023-05-13T12:47:30.259Z,16
2023-05-13T12:48:37.339Z,16
2023-05-13T12:49:44.426Z,16
2023-05-13T12:50:51.509Z,16
2023-05-13T12:51:58.689Z,15.9
2023-05-13T12:53:05.270Z,15.9
2023-05-13T12:54:12.358Z,15.9
2023-05-13T12:55:19.557Z,15.9
2023-05-13T12:56:26.588Z,15.9
2023-05-13T12:57:33.763Z,15.9
2023-05-13T12:59:47.389Z,16
2023-05-13T13:00:54.466Z,16
2023-05-13T13:02:01.553Z,16
2023-05-13T13:03:09.002Z,16
2023-05-13T13:04:15.395Z,16
2023-05-13T13:05:22.786Z,16
2023-05-13T13:06:29.483Z,16
2023-05-13T13:07:36.608Z,15.9
2023-05-13T13:08:43.663Z,15.9
2023-05-13T13:10:57.359Z,15.9
2023-05-13T13:12:04.476Z,15.9
2023-05-13T13:13:11.553Z,15.9
2023-05-13T13:14:18.658Z,15.9
2023-05-13T13:15:25.272Z,15.9
2023-05-13T13:16:32.402Z,16
2023-05-13T13:17:39.499Z,16
2023-05-13T13:18:46.629Z,16
2023-05-13T13:19:53.161Z,16
2023-05-13T13:21:01.026Z,16
2023-05-13T13:22:07.380Z,16
2023-05-13T13:23:14.447Z,16
2023-05-13T13:24:21.594Z,16
2023-05-13T13:25:28.805Z,15.9
2023-05-13T13:26:35.292Z,15.8
2023-05-13T13:27:42.382Z,15.8
2023-05-13T13:28:49.501Z,15.8
2023-05-13T13:29:56.605Z,15.7
2023-05-13T13:31:03.163Z,15.8
2023-05-13T13:32:10.308Z,15.7
2023-05-13T13:33:17.464Z,15.7
2023-05-13T13:34:24.607Z,15.7
2023-05-13T13:35:31.603Z,15.7
2023-05-13T13:36:38.199Z,15.7
2023-05-13T13:37:45.650Z,15.8
2023-05-13T13:41:06.634Z,15.9
2023-05-13T13:42:13.201Z,16
2023-05-13T13:43:20.308Z,16.1
2023-05-13T13:44:28.560Z,16.1
2023-05-13T13:45:34.527Z,16.2
2023-05-13T13:46:41.661Z,16.2
2023-05-13T13:47:48.227Z,16.3
2023-05-13T13:48:55.323Z,16.4
2023-05-13T13:50:02.398Z,16.5
2023-05-13T13:51:09.546Z,16.5
2023-05-13T13:52:16.651Z,16.6
2023-05-13T13:53:23.202Z,16.6
2023-05-13T13:54:30.289Z,16.4
2023-05-13T13:55:37.499Z,16.3
2023-05-13T13:56:44.538Z,16.3
2023-05-13T13:57:51.623Z,16.3
2023-05-13T13:58:58.226Z,16.2
2023-05-13T14:00:05.341Z,16.3
2023-05-13T14:01:12.503Z,16.3
2023-05-13T14:02:19.670Z,16.2
2023-05-13T14:03:26.900Z,16.2
2023-05-13T14:04:34.768Z,16.1
2023-05-13T14:05:40.385Z,16.2
2023-05-13T14:06:47.434Z,16.2
2023-05-13T14:07:54.508Z,16.2
2023-05-13T14:09:01.618Z,16.3
2023-05-13T14:10:08.299Z,16.3
2023-05-13T14:11:15.371Z,16.1
2023-05-13T14:12:22.419Z,16.1
2023-05-13T14:14:36.657Z,16.1
2023-05-13T14:15:43.265Z,16.1
2023-05-13T14:16:50.366Z,16.1
2023-05-13T14:17:57.546Z,16.1
2023-05-13T14:19:04.640Z,16.1
2023-05-13T14:20:11.591Z,16.1
2023-05-13T14:22:25.378Z,16.3
2023-05-13T14:23:32.459Z,16.3
2023-05-13T14:24:39.595Z,16.3
2023-05-13T14:25:46.133Z,16.3
2023-05-13T14:26:53.241Z,16.3
2023-05-13T14:28:00.432Z,16.4
2023-05-13T14:29:07.511Z,16.3
2023-05-13T14:30:14.576Z,16.3
2023-05-13T14:31:21.272Z,16.3
2023-05-13T14:32:28.323Z,16.3
2023-05-13T14:33:35.373Z,16.2
2023-05-13T14:34:42.467Z,16.3
2023-05-13T14:35:49.583Z,16.3
2023-05-13T14:36:56.188Z,16.3
2023-05-13T14:38:03.266Z,16.3
2023-05-13T14:39:10.378Z,16.3
2023-05-13T14:40:17.488Z,16.3
2023-05-13T14:41:24.602Z,16.3
2023-05-13T14:42:31.145Z,16.4
2023-05-13T14:43:38.324Z,16.5
2023-05-13T14:44:45.440Z,16.6
2023-05-13T14:45:52.459Z,16.6
2023-05-13T14:46:59.766Z,16.6
2023-05-13T14:48:06.333Z,16.7
2023-05-13T14:49:13.286Z,16.8
2023-05-13T14:50:20.776Z,16.8
2023-05-13T14:51:27.542Z,16.8
2023-05-13T14:52:34.625Z,16.9
2023-05-13T14:53:41.195Z,16.9
2023-05-13T14:54:48.300Z,16.9
2023-05-13T14:55:55.406Z,16.9
2023-05-13T14:57:02.486Z,16.9
2023-05-13T14:58:09.637Z,16.9
2023-05-13T14:59:16.207Z,16.9
2023-05-13T15:00:23.572Z,16.9
2023-05-13T15:01:30.490Z,16.9
2023-05-13T15:03:44.632Z,16.9
2023-05-13T15:04:51.196Z,16.9
2023-05-13T15:05:58.304Z,16.9
2023-05-13T15:08:12.529Z,16.9
2023-05-13T15:09:22.750Z,16.8
2023-05-13T15:10:26.218Z,16.7
2023-05-13T15:11:33.297Z,16.7
2023-05-13T15:12:40.394Z,16.7
2023-05-13T15:13:47.495Z,16.7
2023-05-13T15:14:54.633Z,16.7
2023-05-13T15:16:01.272Z,16.6
2023-05-13T15:18:15.448Z,16.6
2023-05-13T15:19:22.520Z,16.5
2023-05-13T15:20:29.636Z,16.4
2023-05-13T15:21:36.232Z,16.3
2023-05-13T15:22:43.334Z,16.3
2023-05-13T15:23:50.423Z,16.3
2023-05-13T15:24:57.516Z,16.3
2023-05-13T15:27:11.274Z,16.5
2023-05-13T15:28:18.357Z,16.7
2023-05-13T15:29:25.478Z,16.7
2023-05-13T15:30:32.570Z,16.8
2023-05-13T15:31:39.154Z,16.9
2023-05-13T15:32:46.314Z,16.9
2023-05-13T15:33:53.338Z,17
2023-05-13T15:35:00.452Z,17.1
2023-05-13T15:36:07.572Z,17.1
2023-05-13T15:37:14.115Z,17
2023-05-13T15:38:21.215Z,17
2023-05-13T15:39:28.359Z,16.9
2023-05-13T15:40:35.499Z,16.9
2023-05-13T15:41:42.545Z,16.9
2023-05-13T15:42:49.145Z,16.9
2023-05-13T15:43:56.249Z,16.9
2023-05-13T15:45:03.386Z,16.8
2023-05-13T15:46:10.531Z,16.8
2023-05-13T15:47:17.181Z,16.7
2023-05-13T15:48:24.250Z,16.7
2023-05-13T15:49:31.255Z,16.6
2023-05-13T15:50:38.336Z,16.6
2023-05-13T15:51:45.542Z,16.6
2023-05-13T15:52:52.543Z,16.6
2023-05-13T15:53:59.179Z,16.6
2023-05-13T15:55:06.287Z,16.7
2023-05-13T15:56:13.389Z,16.6
2023-05-13T15:57:20.500Z,16.6
2023-05-13T15:58:27.623Z,16.6
2023-05-13T15:59:34.168Z,16.6
2023-05-13T16:00:41.298Z,16.6
2023-05-13T16:01:48.489Z,16.6
2023-05-13T16:02:55.555Z,16.6
2023-05-13T16:04:02.706Z,16.6
2023-05-13T16:05:09.224Z,16.5
2023-05-13T16:06:16.386Z,16.4
2023-05-13T16:07:23.354Z,16.4
2023-05-13T16:08:30.464Z,16.3
2023-05-13T16:09:37.644Z,16.3
2023-05-13T16:10:44.716Z,16.3
2023-05-13T16:11:51.252Z,16.2
2023-05-13T16:12:58.394Z,16.2
2023-05-13T16:14:05.526Z,16.1
2023-05-13T16:15:12.578Z,16.1
2023-05-13T16:16:19.237Z,16
2023-05-13T16:17:26.324Z,16
2023-05-13T16:18:33.386Z,16
2023-05-13T16:19:40.509Z,15.9
2023-05-13T16:21:54.198Z,15.9
2023-05-13T16:23:01.295Z,15.8
2023-05-13T16:24:08.403Z,15.7
2023-05-13T16:26:22.616Z,15.7
2023-05-13T16:27:29.263Z,15.7
2023-05-13T16:28:36.309Z,15.7
2023-05-13T16:29:43.420Z,15.6
2023-05-13T16:30:50.530Z,15.6
2023-05-13T16:31:57.677Z,15.6
2023-05-13T16:33:04.291Z,15.5
2023-05-13T16:34:11.321Z,15.5
2023-05-13T16:36:25.734Z,15.4
2023-05-13T16:37:32.094Z,15.4
2023-05-13T16:38:39.228Z,15.4
2023-05-13T16:39:46.335Z,15.3
2023-05-13T16:40:53.422Z,15.2
2023-05-13T16:42:00.528Z,15.2
2023-05-13T16:43:07.653Z,15.1
2023-05-13T16:44:14.197Z,15.1
2023-05-13T16:45:21.477Z,15
2023-05-13T16:46:28.436Z,15
2023-05-13T16:47:35.620Z,14.9
2023-05-13T16:48:42.125Z,14.9
2023-05-13T16:49:49.232Z,14.9
2023-05-13T16:50:56.411Z,14.9
2023-05-13T16:52:03.408Z,14.9
2023-05-13T16:53:10.545Z,14.9
2023-05-13T16:54:17.137Z,14.8
2023-05-13T16:55:24.212Z,14.7
2023-05-13T16:56:31.368Z,14.7
2023-05-13T16:57:38.453Z,14.7
2023-05-13T16:58:45.556Z,14.7
2023-05-13T16:59:52.186Z,14.7
2023-05-13T17:01:01.290Z,14.7
2023-05-13T17:02:06.397Z,14.7
2023-05-13T17:03:13.750Z,14.7
2023-05-13T17:04:20.057Z,14.7
2023-05-13T17:05:27.171Z,14.7
2023-05-13T17:07:41.396Z,14.7
2023-05-13T17:08:48.483Z,14.6
2023-05-13T17:09:55.636Z,14.6
2023-05-13T17:11:02.274Z,14.7
2023-05-13T17:12:09.253Z,14.6
2023-05-13T17:13:16.385Z,14.6
2023-05-13T17:14:23.445Z,14.6
2023-05-13T17:15:30.571Z,14.6
2023-05-13T17:16:37.295Z,14.6
2023-05-13T17:17:44.281Z,14.6
2023-05-13T17:18:51.389Z,14.6
2023-05-13T17:19:58.481Z,14.6
2023-05-13T17:21:05.670Z,14.6
2023-05-13T17:22:12.169Z,14.6
2023-05-13T17:23:19.285Z,14.6
2023-05-13T17:25:33.462Z,14.7
2023-05-13T17:26:40.091Z,14.7
2023-05-13T17:27:47.191Z,14.7
2023-05-13T17:28:54.283Z,14.7
2023-05-13T17:30:01.383Z,14.7
2023-05-13T17:31:08.574Z,14.7
2023-05-13T17:32:15.605Z,14.7
2023-05-13T17:33:21.647Z,14.7
2023-05-13T17:33:22.184Z,14.7
2023-05-13T17:34:29.296Z,14.7
2023-05-13T17:36:43.556Z,14.8
2023-05-13T17:38:57.193Z,14.9
2023-05-13T17:44:32.206Z,14.9
2023-05-13T17:46:46.426Z,14.9
2023-05-13T17:55:42.219Z,15.1
2023-05-13T18:00:10.146Z,15.2
2023-05-13T18:04:38.577Z,15.3
2023-05-13T18:05:45.217Z,15.3
2023-05-13T18:06:52.212Z,15.3
2023-05-13T18:07:59.339Z,15.3
2023-05-13T18:11:20.147Z,15.4
2023-05-13T18:12:27.247Z,15.4
2023-05-13T18:13:34.307Z,15.4
2023-05-13T18:14:41.424Z,15.4
2023-05-13T18:15:48.084Z,15.4
2023-05-13T18:16:55.163Z,15.3
2023-05-13T18:18:02.279Z,15.3
2023-05-13T18:19:09.470Z,15.3
2023-05-13T18:20:16.458Z,15.3
2023-05-13T18:21:23.562Z,15.3
2023-05-13T18:22:31.168Z,15.3
2023-05-13T18:23:37.297Z,15.3
2023-05-13T18:24:45.830Z,15.3
2023-05-13T18:25:55.947Z,15.3
2023-05-13T18:26:58.630Z,15.3
2023-05-13T18:30:19.372Z,15.3
2023-05-13T18:31:26.550Z,15.3
2023-05-13T18:32:33.746Z,15.3
2023-05-13T18:33:40.158Z,15.2
2023-05-13T18:34:47.288Z,15.3
2023-05-13T18:35:54.385Z,15.2
2023-05-13T18:37:01.501Z,15.2
2023-05-13T18:38:08.604Z,15.2
2023-05-13T18:39:15.262Z,15.2
2023-05-13T18:40:23.180Z,15.2
2023-05-13T18:41:29.466Z,15.2
2023-05-13T18:42:36.516Z,15.2
2023-05-13T18:43:43.041Z,15.2
2023-05-13T18:44:50.191Z,15.2
2023-05-13T18:45:57.993Z,15.2
2023-05-13T18:47:04.422Z,15.2
2023-05-13T18:48:11.641Z,15.2
2023-05-13T18:49:18.588Z,15.1
2023-05-13T18:50:25.219Z,15.1
2023-05-13T18:51:32.385Z,15
2023-05-13T18:52:39.432Z,15
2023-05-13T18:53:46.594Z,15
2023-05-13T18:54:53.063Z,15
2023-05-13T18:56:00.260Z,15
2023-05-13T18:58:14.064Z,15
2023-05-13T18:58:14.451Z,15
2023-05-13T18:59:21.472Z,15
2023-05-13T19:01:34.753Z,15
2023-05-13T19:01:35.303Z,15
2023-05-13T19:03:49.061Z,14.9
2023-05-13T19:03:49.556Z,14.9
2023-05-13T19:04:56.063Z,14.9
2023-05-13T19:07:10.208Z,14.9
2023-05-13T19:09:24.450Z,14.9
2023-05-13T19:11:38.119Z,14.9
2023-05-13T19:14:59.479Z,14.9
2023-05-13T19:17:13.183Z,14.8
2023-05-13T19:17:13.359Z,14.8
2023-05-13T19:18:20.232Z,14.8
2023-05-13T19:20:34.587Z,14.8
2023-05-13T19:26:09.465Z,14.7
2023-05-13T19:30:37.367Z,14.7
2023-05-13T19:39:33.108Z,14.6
2023-05-13T19:40:40.275Z,14.6
2023-05-13T19:41:47.359Z,14.6
2023-05-13T19:42:54.500Z,14.5
2023-05-13T19:44:01.576Z,14.5
2023-05-13T19:45:08.190Z,14.5
2023-05-13T19:48:29.881Z,14.4
2023-05-13T19:49:36.077Z,14.4
2023-05-13T19:50:43.165Z,14.4
2023-05-13T19:54:03.973Z,14.4
2023-05-13T19:55:11.039Z,14.4
2023-05-13T19:56:18.240Z,14.4
2023-05-13T19:57:25.588Z,14.4
2023-05-13T19:58:32.366Z,14.4
2023-05-13T19:59:39.513Z,14.4
2023-05-13T20:00:46.084Z,14.4
2023-05-13T20:01:53.222Z,14.4
2023-05-13T20:03:00.473Z,14.4
2023-05-13T20:06:21.066Z,14.4
2023-05-13T20:07:28.196Z,14.4
2023-05-13T20:08:35.861Z,14.4
2023-05-13T20:09:42.388Z,14.4
2023-05-13T20:10:49.547Z,14.4
2023-05-13T20:11:56.064Z,14.4
2023-05-13T20:13:03.157Z,14.4
2023-05-13T20:14:10.295Z,14.4
2023-05-13T20:15:18.693Z,14.4
2023-05-13T20:16:24.541Z,14.4
2023-05-13T20:17:31.280Z,14.4
2023-05-13T20:18:38.362Z,14.4
2023-05-13T20:19:45.356Z,14.4
2023-05-13T20:20:52.379Z,14.4
2023-05-13T20:21:59.517Z,14.4
2023-05-13T20:23:06.062Z,14.4
2023-05-13T20:24:13.203Z,14.4
2023-05-13T20:25:20.386Z,14.5
2023-05-13T20:26:27.423Z,14.5
2023-05-13T20:27:34.559Z,14.5
2023-05-13T20:28:41.113Z,14.5
2023-05-13T20:29:48.282Z,14.5
2023-05-13T20:30:55.331Z,14.4
2023-05-13T20:32:02.430Z,14.4
2023-05-13T20:34:16.104Z,14.4
2023-05-13T20:36:30.314Z,14.4
2023-05-13T20:37:37.437Z,14.4
2023-05-13T20:38:44.539Z,14.4
2023-05-13T20:39:52.520Z,14.3
2023-05-13T20:41:01.402Z,14.3
2023-05-13T20:42:05.424Z,14.3
2023-05-13T20:43:11.905Z,14.3
2023-05-13T20:44:19.027Z,14.4
2023-05-13T20:45:26.174Z,14.3
2023-05-13T20:46:33.392Z,14.3
2023-05-13T20:47:40.331Z,14.3
2023-05-13T20:48:47.435Z,14.3
2023-05-13T20:49:54.550Z,14.3
2023-05-13T20:51:01.366Z,14.3
2023-05-13T20:52:09.518Z,14.3
2023-05-13T20:53:15.380Z,14.3
2023-05-13T20:54:22.443Z,14.3
2023-05-13T20:55:29.559Z,14.3
2023-05-13T20:56:36.224Z,14.3
2023-05-13T20:57:43.246Z,14.3
2023-05-13T20:58:50.359Z,14.3
2023-05-13T20:59:57.487Z,14.3
2023-05-13T21:01:04.105Z,14.3
2023-05-13T21:02:11.172Z,14.3
2023-05-13T21:04:25.395Z,14.3
2023-05-13T21:05:31.920Z,14.4
2023-05-13T21:08:53.239Z,14.4
2023-05-13T21:10:00.372Z,14.4
2023-05-13T21:11:06.928Z,14.4
2023-05-13T21:15:35.436Z,14.4
2023-05-13T21:17:49.141Z,14.4
2023-05-13T21:18:56.224Z,14.3
2023-05-13T21:20:03.257Z,14.3
2023-05-13T21:21:10.800Z,14.3
2023-05-13T21:22:17.531Z,14.3
2023-05-13T21:23:24.097Z,14.3
2023-05-13T21:24:31.248Z,14.3
2023-05-13T21:25:38.289Z,14.3
2023-05-13T21:26:45.475Z,14.3
2023-05-13T21:27:51.974Z,14.3
2023-05-13T21:28:59.109Z,14.3
2023-05-13T21:30:06.254Z,14.4
2023-05-13T21:31:13.358Z,14.4
2023-05-13T21:32:19.893Z,14.4
2023-05-13T21:33:27.478Z,14.5
2023-05-13T21:34:34.049Z,14.5
2023-05-13T21:35:41.154Z,14.5
2023-05-13T21:36:48.327Z,14.5
2023-05-13T21:40:09.116Z,14.5
2023-05-13T21:41:16.245Z,14.5
2023-05-13T21:42:23.338Z,14.4
2023-05-13T21:43:30.412Z,14.4
2023-05-13T21:44:37.155Z,14.4
2023-05-13T21:45:44.090Z,14.4
2023-05-13T21:46:51.222Z,14.4
2023-05-13T21:47:58.423Z,14.4
2023-05-13T21:49:05.681Z,14.3
2023-05-13T21:50:12.540Z,14.3
2023-05-13T21:51:19.120Z,14.3
2023-05-13T21:52:26.292Z,14.3
2023-05-13T21:53:33.301Z,14.3
2023-05-13T21:54:39.941Z,14.3
2023-05-13T21:55:47.017Z,14.2
2023-05-13T21:56:54.080Z,14.2
2023-05-13T21:58:01.185Z,14.2
2023-05-13T21:59:08.314Z,14.2
2023-05-13T22:00:15.477Z,14.2
2023-05-13T22:01:22.016Z,14.2
2023-05-13T22:02:29.267Z,14.2
2023-05-13T22:03:36.246Z,14.1
2023-05-13T22:04:43.412Z,14.1
2023-05-13T22:05:50.445Z,14.1
2023-05-13T22:06:57.087Z,14.1
2023-05-13T22:08:04.091Z,14.1
2023-05-13T22:09:11.283Z,14
2023-05-13T22:10:18.369Z,14.1
2023-05-13T22:11:25.452Z,14
2023-05-13T22:12:32.007Z,14
2023-05-13T22:13:39.158Z,14
2023-05-13T22:14:46.251Z,14
2023-05-13T22:15:53.377Z,14
2023-05-13T22:17:09.131Z,14
2023-05-13T22:18:07.125Z,14
2023-05-13T22:19:14.368Z,14
2023-05-13T22:20:21.388Z,14
2023-05-13T22:21:27.909Z,14
2023-05-13T22:22:35.464Z,14
2023-05-13T22:23:42.008Z,14
2023-05-13T22:24:49.180Z,14.1
2023-05-13T22:25:56.254Z,14.1
2023-05-13T22:27:03.382Z,14.1
2023-05-13T22:28:10.445Z,14.1
2023-05-13T22:29:17.105Z,14.1
2023-05-13T22:30:24.497Z,14.2
2023-05-13T22:31:31.411Z,14.2
2023-05-13T22:32:38.509Z,14.2
2023-05-13T22:33:45.485Z,14.2
2023-05-13T22:34:52.037Z,14.3
2023-05-13T22:35:59.197Z,14.3
2023-05-13T22:37:06.274Z,14.3
2023-05-13T22:38:13.366Z,14.4
2023-05-13T22:39:20.008Z,14.3
2023-05-13T22:40:27.076Z,14.3
2023-05-13T22:41:34.252Z,14.3
2023-05-13T22:43:47.862Z,14.4
2023-05-13T22:44:55.556Z,14.4
2023-05-13T22:46:02.086Z,14.4
2023-05-13T22:47:09.193Z,14.4
2023-05-13T22:48:16.303Z,14.4
2023-05-13T22:49:23.419Z,14.4
2023-05-13T22:50:30.029Z,14.4
2023-05-13T22:51:37.140Z,14.4
2023-05-13T22:52:44.209Z,14.4
2023-05-13T22:53:51.279Z,14.4
2023-05-13T22:54:58.399Z,14.4
2023-05-13T22:56:04.998Z,14.4
2023-05-13T22:57:12.091Z,14.4
2023-05-13T22:58:19.238Z,14.4
2023-05-13T22:59:26.319Z,14.4
2023-05-13T23:00:33.401Z,14.4
2023-05-13T23:01:40.086Z,14.4
2023-05-13T23:02:47.163Z,14.4
2023-05-13T23:03:54.228Z,14.4
2023-05-13T23:05:01.961Z,14.4
2023-05-13T23:06:07.904Z,14.4
2023-05-13T23:07:15.011Z,14.4
2023-05-13T23:08:22.077Z,14.5
2023-05-13T23:09:29.257Z,14.5
2023-05-13T23:10:36.323Z,14.5
2023-05-13T23:11:43.444Z,14.5
2023-05-13T23:12:50.039Z,14.5
2023-05-13T23:13:57.121Z,14.5
2023-05-13T23:15:04.223Z,14.5
2023-05-13T23:16:11.355Z,14.5
2023-05-13T23:17:18.437Z,14.6
2023-05-13T23:18:25.063Z,14.6
2023-05-13T23:19:32.189Z,14.6
2023-05-13T23:20:39.267Z,14.7
2023-05-13T23:21:46.356Z,14.7
2023-05-13T23:22:53.422Z,14.7
2023-05-13T23:24:00.120Z,14.7